Time;durP1;ratioP1;P1;durP2;ratioP2;P2;SDS_P1;SDS_P2;PMS_P1;PMS_P2;Temp;Humidity;BMP_temperature;BMP_pressure;BME280_temperature;BME280_humidity;BME280_pressure;Samples;Min_cycle;Max_cycle;Signal;HPM_P1;HPM_P2
2022/10/01 00:01:09;;;;;;;10.93;7.32;;;;;;;;;;6163177;23;20030;-79
2022/10/01 00:03:35;;;;;;;13.55;7.35;;;;;;;;;;6136951;23;20022;-81
2022/10/01 00:06:16;;;;;;;9.95;6.85;;;;;;;;;;6161719;23;20006;-80
2022/10/01 00:08:47;;;;;;;11.60;7.28;;;;;;;;;;6163473;23;20022;-79
2022/10/01 00:11:20;;;;;;;11.30;7.55;;;;;;;;;;6162579;23;20021;-80
2022/10/01 00:13:47;;;;;;;12.05;7.30;;;;;;;;;;6136802;23;20036;-80
2022/10/01 00:16:15;;;;;;;13.68;7.88;;;;;;;;;;6161836;23;20030;-80
2022/10/01 00:18:42;;;;;;;15.02;8.18;;;;;;;;;;6136211;23;20010;-81
2022/10/01 00:21:12;;;;;;;15.57;8.60;;;;;;;;;;6163965;23;20025;-82
2022/10/01 00:24:03;;;;;;;14.77;7.72;;;;;;;;;;6134559;23;20018;-80
2022/10/01 00:26:31;;;;;;;13.82;7.85;;;;;;;;;;6137116;23;20034;-80
2022/10/01 00:28:59;;;;;;;14.20;7.43;;;;;;;;;;6137912;23;20022;-81
2022/10/01 00:31:25;;;;;;;15.20;8.27;;;;;;;;;;6137743;23;20037;-81
2022/10/01 00:33:52;;;;;;;12.10;7.95;;;;;;;;;;6136719;23;20042;-80
2022/10/01 00:36:19;;;;;;;18.90;8.00;;;;;;;;;;6135572;23;20030;-80
2022/10/01 00:38:47;;;;;;;21.88;8.40;;;;;;;;;;6163093;23;20076;-80
2022/10/01 00:41:14;;;;;;;13.52;8.40;;;;;;;;;;6135638;23;20032;-81
2022/10/01 00:43:53;;;;;;;14.30;8.70;;;;;;;;;;6135722;23;20049;-82
2022/10/01 00:46:20;;;;;;;15.05;8.95;;;;;;;;;;6135377;23;20037;-81
2022/10/01 00:48:51;;;;;;;15.18;8.88;;;;;;;;;;6134914;23;20022;-81
2022/10/01 00:51:18;;;;;;;13.65;7.82;;;;;;;;;;6133985;23;20033;-82
2022/10/01 00:53:45;;;;;;;13.18;7.10;;;;;;;;;;6133997;23;20034;-81
2022/10/01 00:56:11;;;;;;;18.73;7.55;;;;;;;;;;6132979;23;20022;-81
2022/10/01 00:58:38;;;;;;;13.63;7.57;;;;;;;;;;6158965;23;20049;-84
2022/10/01 01:01:04;;;;;;;16.17;8.07;;;;;;;;;;6157251;23;20011;-82
2022/10/01 01:03:31;;;;;;;13.85;7.78;;;;;;;;;;6156209;23;20026;-81
2022/10/01 01:05:57;;;;;;;13.55;7.45;;;;;;;;;;6151966;23;20040;-82
2022/10/01 01:08:23;;;;;;;11.18;6.95;;;;;;;;;;6185695;23;20097;-80
2022/10/01 01:11:09;;;;;;;13.63;7.43;;;;;;;;;;6187095;23;20088;-82
2022/10/01 01:13:49;;;;;;;11.30;6.30;;;;;;;;;;6187292;23;20089;-83
2022/10/01 01:16:32;;;;;;;12.55;6.82;;;;;;;;;;6186713;23;20021;-83
2022/10/01 01:19:01;;;;;;;10.10;6.45;;;;;;;;;;6187552;23;20030;-81
2022/10/01 01:21:29;;;;;;;11.00;6.13;;;;;;;;;;6187175;23;20029;-82
2022/10/01 01:23:59;;;;;;;16.20;7.10;;;;;;;;;;6189604;23;20025;-81
2022/10/01 01:26:31;;;;;;;10.15;6.35;;;;;;;;;;6185992;23;20771;-82
2022/10/01 01:29:01;;;;;;;9.15;5.78;;;;;;;;;;6187671;23;20030;-81
2022/10/01 01:31:32;;;;;;;11.00;6.63;;;;;;;;;;6185600;23;20022;-81
2022/10/01 01:33:59;;;;;;;9.90;6.03;;;;;;;;;;6184055;23;20029;-81
2022/10/01 01:36:27;;;;;;;9.88;6.13;;;;;;;;;;6185599;23;20467;-81
2022/10/01 01:38:59;;;;;;;11.55;5.93;;;;;;;;;;6185300;23;20029;-81
2022/10/01 01:41:28;;;;;;;12.48;6.70;;;;;;;;;;6185100;23;20033;-81
2022/10/01 01:43:56;;;;;;;11.23;6.50;;;;;;;;;;6185185;23;20030;-81
2022/10/01 01:46:26;;;;;;;9.25;5.65;;;;;;;;;;6188380;23;20034;-82
2022/10/01 01:48:52;;;;;;;11.57;5.77;;;;;;;;;;6188029;23;20041;-82
2022/10/01 01:51:31;;;;;;;11.98;5.30;;;;;;;;;;6186250;23;20777;-82
2022/10/01 01:53:58;;;;;;;10.85;5.85;;;;;;;;;;6188440;23;21228;-82
2022/10/01 01:56:24;;;;;;;9.10;4.95;;;;;;;;;;6187094;23;20029;-82
2022/10/01 01:58:52;;;;;;;9.32;5.35;;;;;;;;;;6187885;23;20029;-81
2022/10/01 02:01:38;;;;;;;8.95;5.25;;;;;;;;;;6185921;23;20029;-82
2022/10/01 02:04:14;;;;;;;10.98;4.50;;;;;;;;;;6184484;23;20133;-82
2022/10/01 02:06:52;;;;;;;9.13;4.53;;;;;;;;;;6184956;23;20041;-82
2022/10/01 02:09:30;;;;;;;9.50;4.72;;;;;;;;;;6185669;23;20033;-81
2022/10/01 02:12:09;;;;;;;7.25;4.47;;;;;;;;;;6185304;23;20033;-82
2022/10/01 02:14:39;;;;;;;8.63;4.93;;;;;;;;;;6186568;23;20173;-81
2022/10/01 02:17:15;;;;;;;8.70;4.00;;;;;;;;;;6183711;23;20026;-82
2022/10/01 02:19:54;;;;;;;7.80;4.38;;;;;;;;;;6183773;23;20029;-81
2022/10/01 02:22:25;;;;;;;9.77;4.63;;;;;;;;;;6185455;23;20058;-81
2022/10/01 02:24:55;;;;;;;9.23;4.55;;;;;;;;;;6187115;23;20049;-81
2022/10/01 02:27:22;;;;;;;;;;;;;;;;;;6186336;23;20029;-81
2022/10/01 02:29:48;;;;;;;7.63;3.83;;;;;;;;;;6185299;23;48486;-81
2022/10/01 02:32:16;;;;;;;7.75;3.95;;;;;;;;;;6184634;23;20029;-81
2022/10/01 02:34:44;;;;;;;6.53;3.78;;;;;;;;;;6184922;23;20073;-81
2022/10/01 02:37:11;;;;;;;8.23;3.38;;;;;;;;;;6183866;23;20029;-81
2022/10/01 02:39:40;;;;;;;8.18;3.50;;;;;;;;;;6186565;23;20909;-81
2022/10/01 02:42:07;;;;;;;6.78;3.13;;;;;;;;;;6185653;23;20033;-81
2022/10/01 02:44:39;;;;;;;6.60;2.72;;;;;;;;;;6185759;23;20473;-82
2022/10/01 02:47:11;;;;;;;4.68;2.50;;;;;;;;;;6185735;23;20029;-82
2022/10/01 02:49:40;;;;;;;5.32;2.65;;;;;;;;;;6184111;23;20563;-82
2022/10/01 02:52:12;;;;;;;5.20;2.95;;;;;;;;;;6184478;23;20053;-81
2022/10/01 02:54:45;;;;;;;5.40;2.90;;;;;;;;;;6184343;23;20036;-82
2022/10/01 02:57:22;;;;;;;5.72;2.97;;;;;;;;;;6185205;23;20033;-81
2022/10/01 02:59:49;;;;;;;5.47;2.75;;;;;;;;;;6185445;23;20025;-81
2022/10/01 03:02:16;;;;;;;5.43;2.60;;;;;;;;;;6183920;23;20033;-81
2022/10/01 03:04:42;;;;;;;6.55;2.85;;;;;;;;;;6185736;23;20033;-81
2022/10/01 03:07:08;;;;;;;4.55;2.53;;;;;;;;;;6183487;23;20076;-81
2022/10/01 03:09:38;;;;;;;6.22;2.72;;;;;;;;;;6183920;23;20053;-81
2022/10/01 03:12:05;;;;;;;4.88;2.60;;;;;;;;;;6184827;23;20029;-82
2022/10/01 03:14:31;;;;;;;4.18;2.45;;;;;;;;;;6183531;23;20037;-80
2022/10/01 03:16:58;;;;;;;6.63;2.90;;;;;;;;;;6182341;23;20855;-81
2022/10/01 03:19:24;;;;;;;6.85;2.70;;;;;;;;;;6183657;23;20032;-81
2022/10/01 03:21:50;;;;;;;5.05;2.80;;;;;;;;;;6185472;23;20029;-81
2022/10/01 03:24:17;;;;;;;5.13;2.92;;;;;;;;;;6183404;23;20025;-82
2022/10/01 03:26:44;;;;;;;4.90;2.65;;;;;;;;;;6183868;23;20430;-80
2022/10/01 03:29:11;;;;;;;5.30;2.55;;;;;;;;;;6185180;23;20029;-80
2022/10/01 03:31:37;;;;;;;5.60;2.80;;;;;;;;;;6183928;23;20029;-80
2022/10/01 03:34:04;;;;;;;6.57;3.00;;;;;;;;;;6185391;23;20045;-80
2022/10/01 03:36:30;;;;;;;6.78;3.22;;;;;;;;;;6183446;23;20470;-80
2022/10/01 03:38:56;;;;;;;6.90;3.75;;;;;;;;;;6185238;23;20029;-81
2022/10/01 03:41:22;;;;;;;4.97;3.20;;;;;;;;;;6185217;23;20041;-81
2022/10/01 03:43:49;;;;;;;4.93;3.03;;;;;;;;;;6185510;23;20030;-81
2022/10/01 03:46:15;;;;;;;5.60;3.05;;;;;;;;;;6183512;23;20036;-80
2022/10/01 03:48:41;;;;;;;4.90;3.10;;;;;;;;;;6184417;23;20057;-81
2022/10/01 03:51:07;;;;;;;5.13;3.35;;;;;;;;;;6183879;23;20029;-81
2022/10/01 03:53:34;;;;;;;7.43;3.67;;;;;;;;;;6184174;23;20080;-81
2022/10/01 03:56:00;;;;;;;5.88;3.53;;;;;;;;;;6183832;23;20036;-81
2022/10/01 03:58:26;;;;;;;6.38;3.50;;;;;;;;;;6184272;23;20037;-79
2022/10/01 04:00:54;;;;;;;6.70;3.78;;;;;;;;;;6185580;23;20088;-82
2022/10/01 04:03:20;;;;;;;6.20;3.65;;;;;;;;;;6185538;23;20025;-81
2022/10/01 04:05:46;;;;;;;6.38;3.92;;;;;;;;;;6175107;23;20028;-81
2022/10/01 04:08:13;;;;;;;5.88;3.97;;;;;;;;;;6155947;23;20471;-81
2022/10/01 04:10:39;;;;;;;8.82;4.05;;;;;;;;;;6155769;23;20030;-81
2022/10/01 04:13:06;;;;;;;7.60;4.20;;;;;;;;;;6156319;23;20026;-80
2022/10/01 04:15:32;;;;;;;6.07;3.90;;;;;;;;;;6155798;23;20034;-82
2022/10/01 04:17:59;;;;;;;7.55;4.20;;;;;;;;;;6156410;23;20030;-81
2022/10/01 04:20:25;;;;;;;6.45;4.05;;;;;;;;;;6130091;23;20423;-82
2022/10/01 04:22:51;;;;;;;7.18;3.95;;;;;;;;;;6131385;23;20033;-82
2022/10/01 04:25:18;;;;;;;6.72;4.32;;;;;;;;;;6130485;23;20089;-82
2022/10/01 04:27:58;;;;;;;7.65;4.65;;;;;;;;;;6130909;23;20041;-82
2022/10/01 04:30:25;;;;;;;8.43;4.70;;;;;;;;;;6156973;23;20502;-82
2022/10/01 04:32:51;;;;;;;7.45;5.35;;;;;;;;;;6131252;23;20022;-82
2022/10/01 04:35:18;;;;;;;7.10;5.28;;;;;;;;;;6130270;23;20021;-82
2022/10/01 04:37:44;;;;;;;8.93;5.70;;;;;;;;;;6157003;23;20026;-82
2022/10/01 04:40:10;;;;;;;8.90;5.57;;;;;;;;;;6130953;23;20037;-82
2022/10/01 04:42:37;;;;;;;10.38;6.03;;;;;;;;;;6130642;23;20030;-83
2022/10/01 04:45:04;;;;;;;9.30;6.75;;;;;;;;;;6131141;23;20427;-81
2022/10/01 04:47:30;;;;;;;8.65;6.28;;;;;;;;;;6132329;23;20030;-81
2022/10/01 04:50:02;;;;;;;11.98;7.07;;;;;;;;;;6155928;23;20061;-81
2022/10/01 04:52:29;;;;;;;9.45;7.00;;;;;;;;;;6131510;23;20490;-81
2022/10/01 04:54:55;;;;;;;9.90;7.22;;;;;;;;;;6129864;23;20056;-81
2022/10/01 04:57:21;;;;;;;10.80;7.72;;;;;;;;;;6128297;23;20133;-82
2022/10/01 04:59:49;;;;;;;10.63;8.27;;;;;;;;;;6128793;23;20034;-82
2022/10/01 05:02:16;;;;;;;13.13;7.97;;;;;;;;;;6132497;23;20034;-82
2022/10/01 05:04:43;;;;;;;10.07;7.75;;;;;;;;;;6130074;23;20033;-81
2022/10/01 05:07:09;;;;;;;12.15;8.38;;;;;;;;;;6156656;23;20570;-83
2022/10/01 05:09:35;;;;;;;11.98;8.50;;;;;;;;;;6130442;23;20483;-81
2022/10/01 05:12:02;;;;;;;13.10;8.50;;;;;;;;;;6131341;23;20439;-82
2022/10/01 05:14:28;;;;;;;12.18;8.45;;;;;;;;;;6157365;23;20041;-82
2022/10/01 05:16:54;;;;;;;10.43;7.72;;;;;;;;;;6129337;23;20026;-81
2022/10/01 05:19:21;;;;;;;12.77;8.75;;;;;;;;;;6155926;23;20379;-82
2022/10/01 05:21:53;;;;;;;11.27;8.52;;;;;;;;;;6157406;23;20034;-82
2022/10/01 05:24:19;;;;;;;13.93;9.50;;;;;;;;;;6131968;23;20107;-82
2022/10/01 05:26:45;;;;;;;12.88;8.65;;;;;;;;;;6129806;23;20026;-82
2022/10/01 05:29:13;;;;;;;12.70;9.25;;;;;;;;;;6129465;23;20064;-81
2022/10/01 05:31:43;;;;;;;13.05;9.13;;;;;;;;;;6132315;23;20030;-81
2022/10/01 05:34:09;;;;;;;14.63;9.48;;;;;;;;;;6131794;23;20444;-81
2022/10/01 05:36:35;;;;;;;13.50;9.40;;;;;;;;;;6131746;23;21034;-81
2022/10/01 05:39:02;;;;;;;12.98;10.02;;;;;;;;;;6130974;23;20514;-81
2022/10/01 05:41:28;;;;;;;12.77;9.70;;;;;;;;;;6157413;23;20037;-81
2022/10/01 05:43:55;;;;;;;17.35;11.07;;;;;;;;;;6158480;23;20029;-81
2022/10/01 05:46:21;;;;;;;17.88;11.10;;;;;;;;;;6132006;23;20018;-82
2022/10/01 05:48:49;;;;;;;17.23;10.88;;;;;;;;;;6132335;23;20121;-80
2022/10/01 05:51:15;;;;;;;17.05;10.57;;;;;;;;;;6155223;23;20026;-80
2022/10/01 05:53:41;;;;;;;14.90;10.02;;;;;;;;;;6156058;23;20089;-80
2022/10/01 05:56:14;;;;;;;22.40;12.27;;;;;;;;;;6156367;23;20042;-80
2022/10/01 05:58:40;;;;;;;16.85;11.35;;;;;;;;;;6131511;23;20057;-80
2022/10/01 06:01:06;;;;;;;19.58;11.63;;;;;;;;;;6158732;23;20111;-80
2022/10/01 06:03:32;;;;;;;19.67;12.18;;;;;;;;;;6130975;23;20026;-80
2022/10/01 06:05:59;;;;;;;14.50;10.27;;;;;;;;;;6151281;23;20085;-79
2022/10/01 06:08:26;;;;;;;15.38;10.02;;;;;;;;;;6183443;23;20060;-80
2022/10/01 06:10:57;;;;;;;15.30;10.32;;;;;;;;;;6183179;23;20029;-79
2022/10/01 06:13:23;;;;;;;14.27;10.20;;;;;;;;;;6185483;23;20879;-78
2022/10/01 06:15:51;;;;;;;15.20;10.75;;;;;;;;;;6183107;23;20032;-79
2022/10/01 06:18:17;;;;;;;17.92;10.35;;;;;;;;;;6183546;23;20026;-78
2022/10/01 06:20:43;;;;;;;17.00;10.90;;;;;;;;;;6182763;23;20060;-82
2022/10/01 06:23:11;;;;;;;14.82;9.52;;;;;;;;;;6185446;23;20033;-81
2022/10/01 06:25:38;;;;;;;17.70;10.68;;;;;;;;;;6182550;23;20800;-80
2022/10/01 06:28:05;;;;;;;18.17;9.98;;;;;;;;;;6184316;23;20102;-78
2022/10/01 06:30:33;;;;;;;18.08;10.52;;;;;;;;;;6183439;23;20479;-78
2022/10/01 06:33:02;;;;;;;16.95;10.55;;;;;;;;;;6184067;23;20423;-80
2022/10/01 06:35:29;;;;;;;16.60;10.38;;;;;;;;;;6183977;23;20518;-79
2022/10/01 06:37:56;;;;;;;19.23;10.52;;;;;;;;;;6182337;23;20084;-79
2022/10/01 06:40:23;;;;;;;16.85;10.68;;;;;;;;;;6183931;23;20557;-77
2022/10/01 06:42:49;;;;;;;14.88;9.90;;;;;;;;;;6183464;23;20025;-79
2022/10/01 06:45:22;;;;;;;16.60;10.20;;;;;;;;;;6181663;23;20536;-77
2022/10/01 06:48:01;;;;;;;18.83;10.25;;;;;;;;;;6182187;23;20033;-79
2022/10/01 06:50:28;;;;;;;16.45;9.95;;;;;;;;;;6182013;23;20029;-78
2022/10/01 06:52:54;;;;;;;17.00;10.25;;;;;;;;;;6181370;23;20171;-78
2022/10/01 06:55:23;;;;;;;19.52;10.27;;;;;;;;;;6183057;23;20029;-79
2022/10/01 06:57:53;;;;;;;16.42;10.32;;;;;;;;;;6182069;23;20033;-78
2022/10/01 07:00:19;;;;;;;19.00;9.98;;;;;;;;;;6181266;23;20029;-77
2022/10/01 07:02:46;;;;;;;16.17;10.32;;;;;;;;;;6183542;23;20025;-77
2022/10/01 07:05:13;;;;;;;17.30;10.38;;;;;;;;;;6176656;23;20047;-79
2022/10/01 07:07:40;;;;;;;17.85;10.20;;;;;;;;;;6153008;23;20052;-78
2022/10/01 07:10:07;;;;;;;17.02;10.13;;;;;;;;;;6152982;23;20025;-78
2022/10/01 07:12:35;;;;;;;17.63;10.10;;;;;;;;;;6153035;23;20486;-78
2022/10/01 07:15:01;;;;;;;17.45;10.30;;;;;;;;;;6155640;23;20033;-79
2022/10/01 07:17:27;;;;;;;19.27;10.43;;;;;;;;;;6157213;23;20899;-78
2022/10/01 07:19:54;;;;;;;18.23;11.13;;;;;;;;;;6157655;23;20030;-78
2022/10/01 07:22:22;;;;;;;17.73;9.88;;;;;;;;;;6131538;23;20026;-80
2022/10/01 07:24:49;;;;;;;16.90;10.63;;;;;;;;;;6156432;23;20022;-79
2022/10/01 07:27:16;;;;;;;18.08;9.70;;;;;;;;;;6156694;23;20472;-79
2022/10/01 07:29:42;;;;;;;16.38;10.18;;;;;;;;;;6131009;23;20033;-79
2022/10/01 07:32:09;;;;;;;16.48;9.77;;;;;;;;;;6128688;23;20533;-79
2022/10/01 07:34:38;;;;;;;15.50;9.40;;;;;;;;;;6157286;23;20026;-80
2022/10/01 07:37:05;;;;;;;20.65;11.00;;;;;;;;;;6130187;23;20037;-79
2022/10/01 07:39:32;;;;;;;15.77;9.95;;;;;;;;;;6156489;23;20029;-79
2022/10/01 07:41:58;;;;;;;18.30;10.45;;;;;;;;;;6130958;23;20037;-79
2022/10/01 07:44:26;;;;;;;15.65;9.48;;;;;;;;;;6131639;23;20873;-79
2022/10/01 07:46:52;;;;;;;17.60;8.80;;;;;;;;;;6129876;23;21235;-78
2022/10/01 07:49:19;;;;;;;16.52;9.40;;;;;;;;;;6131940;23;20034;-79
2022/10/01 07:51:47;;;;;;;17.45;8.65;;;;;;;;;;6129791;23;20030;-79
2022/10/01 07:54:14;;;;;;;14.70;7.78;;;;;;;;;;6154663;23;20030;-78
2022/10/01 07:56:40;;;;;;;11.80;7.72;;;;;;;;;;6130354;23;20062;-78
2022/10/01 07:59:08;;;;;;;15.68;8.63;;;;;;;;;;6128783;23;20088;-78
2022/10/01 08:01:35;;;;;;;13.07;7.80;;;;;;;;;;6128492;23;20033;-78
2022/10/01 08:05:16;;;;;;;19.50;7.47;;;;;;;;;;6130319;23;20521;-78
2022/10/01 08:06:51;;;;;;;15.52;7.85;;;;;;;;;;6153929;23;20030;-78
2022/10/01 08:09:18;;;;;;;16.25;7.60;;;;;;;;;;6129175;23;20025;-77
2022/10/01 08:11:44;;;;;;;13.30;6.50;;;;;;;;;;6153324;23;20030;-77
2022/10/01 08:14:11;;;;;;;17.17;7.15;;;;;;;;;;6154582;23;20033;-77
2022/10/01 08:16:39;;;;;;;14.95;6.95;;;;;;;;;;6154856;23;20379;-76
2022/10/01 08:19:06;;;;;;;13.18;6.35;;;;;;;;;;6125513;23;20109;-77
2022/10/01 08:21:34;;;;;;;11.45;6.80;;;;;;;;;;6153682;23;20025;-77
2022/10/01 08:24:02;;;;;;;14.35;6.30;;;;;;;;;;6129366;23;20028;-77
2022/10/01 08:26:28;;;;;;;13.02;6.45;;;;;;;;;;6155044;23;20029;-78
2022/10/01 08:28:54;;;;;;;14.30;7.15;;;;;;;;;;6155620;23;20431;-77
2022/10/01 08:31:20;;;;;;;16.58;6.93;;;;;;;;;;6153910;23;20029;-78
2022/10/01 08:33:47;;;;;;;12.38;7.43;;;;;;;;;;6155229;23;20045;-77
2022/10/01 08:36:15;;;;;;;12.75;6.78;;;;;;;;;;6127917;23;20037;-77
2022/10/01 08:38:46;;;;;;;13.90;7.18;;;;;;;;;;6153433;23;20037;-78
2022/10/01 08:41:44;;;;;;;15.27;7.55;;;;;;;;;;6154189;23;20026;-76
2022/10/01 08:44:26;;;;;;;12.38;6.53;;;;;;;;;;6088905;23;20026;-81
2022/10/01 08:46:54;;;;;;;10.40;5.78;;;;;;;;;;6131280;23;20375;-79
2022/10/01 08:49:30;;;;;;;8.38;5.45;;;;;;;;;;6129729;23;20033;-80
2022/10/01 08:52:12;;;;;;;9.70;3.88;;;;;;;;;;6130504;23;20022;-79
2022/10/01 08:54:41;;;;;;;8.98;3.78;;;;;;;;;;6131072;23;20030;-79
2022/10/01 08:57:12;;;;;;;8.43;3.45;;;;;;;;;;6130053;23;20037;-79
2022/10/01 08:59:40;;;;;;;9.02;3.65;;;;;;;;;;6130613;23;20026;-78
2022/10/01 09:02:13;;;;;;;7.57;3.80;;;;;;;;;;6156229;23;20038;-79
2022/10/01 09:04:39;;;;;;;9.60;4.22;;;;;;;;;;6153835;23;20026;-79
2022/10/01 09:07:13;;;;;;;11.65;3.58;;;;;;;;;;6178188;23;20105;-78
2022/10/01 09:10:05;;;;;;;6.95;3.45;;;;;;;;;;6186250;23;20017;-78
2022/10/01 09:12:44;;;;;;;9.05;3.08;;;;;;;;;;6149187;23;20017;-78
2022/10/01 09:15:30;;;;;;;9.32;3.40;;;;;;;;;;6185563;23;20026;-80
2022/10/01 09:18:14;;;;;;;9.70;3.65;;;;;;;;;;6185528;23;20068;-79
2022/10/01 09:20:42;;;;;;;5.97;2.95;;;;;;;;;;6186574;23;20036;-79
2022/10/01 09:23:16;;;;;;;14.23;3.47;;;;;;;;;;6182460;23;20088;-80
2022/10/01 09:25:44;;;;;;;8.35;3.03;;;;;;;;;;6183971;23;20111;-79
2022/10/01 09:28:26;;;;;;;9.48;2.70;;;;;;;;;;6182480;23;20041;-80
2022/10/01 09:30:57;;;;;;;11.52;3.20;;;;;;;;;;6187790;23;20032;-79
2022/10/01 09:33:28;;;;;;;8.38;2.83;;;;;;;;;;6187586;23;20029;-80
2022/10/01 09:36:00;;;;;;;9.23;2.80;;;;;;;;;;6186619;23;20545;-79
2022/10/01 09:38:37;;;;;;;12.57;3.38;;;;;;;;;;6188656;23;20381;-80
2022/10/01 09:41:05;;;;;;;8.43;2.53;;;;;;;;;;6185784;23;20021;-80
2022/10/01 09:43:33;;;;;;;9.98;2.10;;;;;;;;;;6184154;23;20510;-79
2022/10/01 09:46:01;;;;;;;11.45;1.80;;;;;;;;;;6186439;23;20026;-79
2022/10/01 09:48:30;;;;;;;12.35;2.33;;;;;;;;;;6188184;23;20029;-79
2022/10/01 09:51:00;;;;;;;9.50;1.80;;;;;;;;;;6187867;23;20030;-79
2022/10/01 09:53:34;;;;;;;9.88;1.77;;;;;;;;;;6186161;23;20026;-79
2022/10/01 09:56:09;;;;;;;12.32;1.83;;;;;;;;;;6186008;23;20030;-79
2022/10/01 09:58:37;;;;;;;7.55;2.17;;;;;;;;;;6184617;23;20036;-80
2022/10/01 10:01:25;;;;;;;10.73;1.83;;;;;;;;;;6181765;23;20036;-80
2022/10/01 10:03:52;;;;;;;9.50;1.95;;;;;;;;;;6184115;23;20036;-81
2022/10/01 10:06:22;;;;;;;10.13;2.00;;;;;;;;;;6183782;23;20032;-78
2022/10/01 10:08:49;;;;;;;7.15;1.55;;;;;;;;;;6184880;23;20482;-80
2022/10/01 10:11:20;;;;;;;13.18;1.60;;;;;;;;;;6185958;23;20029;-80
2022/10/01 10:14:03;;;;;;;10.35;2.03;;;;;;;;;;6183410;23;20037;-75
2022/10/01 10:16:33;;;;;;;12.63;1.95;;;;;;;;;;6184132;23;20101;-80
2022/10/01 10:19:02;;;;;;;9.05;2.00;;;;;;;;;;6183918;23;20080;-80
2022/10/01 10:21:30;;;;;;;14.23;2.22;;;;;;;;;;6183527;23;20028;-81
2022/10/01 10:23:58;;;;;;;10.48;1.60;;;;;;;;;;6186868;23;20026;-81
2022/10/01 10:26:30;;;;;;;8.20;1.60;;;;;;;;;;6186312;23;20049;-80
2022/10/01 10:28:58;;;;;;;12.40;1.60;;;;;;;;;;6185170;23;20061;-79
2022/10/01 10:31:26;;;;;;;9.60;1.60;;;;;;;;;;6185170;23;20029;-79
2022/10/01 10:34:00;;;;;;;9.80;1.77;;;;;;;;;;6186273;23;20017;-82
2022/10/01 10:36:29;;;;;;;7.57;1.52;;;;;;;;;;6187361;23;20033;-81
2022/10/01 10:38:56;;;;;;;11.63;1.83;;;;;;;;;;6187392;23;20025;-80
2022/10/01 10:41:25;;;;;;;8.50;1.67;;;;;;;;;;6188198;23;20734;-79
2022/10/01 10:43:56;;;;;;;8.18;2.00;;;;;;;;;;6186033;23;20061;-81
2022/10/01 10:46:34;;;;;;;11.30;1.75;;;;;;;;;;6186065;23;20029;-80
2022/10/01 10:49:03;;;;;;;7.50;1.65;;;;;;;;;;6186301;23;20054;-79
2022/10/01 10:51:52;;;;;;;11.65;2.13;;;;;;;;;;6185158;23;20033;-79
2022/10/01 10:54:38;;;;;;;12.40;1.92;;;;;;;;;;6186475;23;20415;-79
2022/10/01 10:57:26;;;;;;;6.68;1.85;;;;;;;;;;6186961;23;20089;-80
2022/10/01 10:59:56;;;;;;;6.20;1.77;;;;;;;;;;6187511;23;20057;-80
2022/10/01 11:02:24;;;;;;;8.07;1.45;;;;;;;;;;6187340;23;20088;-79
2022/10/01 11:04:52;;;;;;;10.73;1.30;;;;;;;;;;6187157;23;20029;-80
2022/10/01 11:07:20;;;;;;;6.38;1.40;;;;;;;;;;6155703;23;20025;-79
2022/10/01 11:09:57;;;;;;;9.82;1.30;;;;;;;;;;6129932;23;20021;-79
2022/10/01 11:12:30;;;;;;;11.13;1.77;;;;;;;;;;6157516;23;20612;-79
2022/10/01 11:15:29;;;;;;;13.30;1.80;;;;;;;;;;6131809;23;20081;-79
2022/10/01 11:17:55;;;;;;;15.98;2.45;;;;;;;;;;6093234;23;20046;-80
2022/10/01 11:20:42;;;;;;;6.57;2.08;;;;;;;;;;6155815;23;20029;-80
2022/10/01 11:23:29;;;;;;;9.23;1.40;;;;;;;;;;6156361;23;20037;-80
2022/10/01 11:25:55;;;;;;;13.15;2.08;;;;;;;;;;6157273;23;20164;-80
2022/10/01 11:28:34;;;;;;;7.43;1.52;;;;;;;;;;6156734;23;20025;-80
2022/10/01 11:31:09;;;;;;;9.98;1.80;;;;;;;;;;6157767;23;20475;-80
2022/10/01 11:33:43;;;;;;;13.50;2.25;;;;;;;;;;6131879;23;20030;-80
2022/10/01 11:36:16;;;;;;;12.82;1.80;;;;;;;;;;6131243;23;20046;-79
2022/10/01 11:38:46;;;;;;;7.80;1.75;;;;;;;;;;6156479;23;20018;-80
2022/10/01 11:41:19;;;;;;;9.88;1.30;;;;;;;;;;6130035;23;21020;-81
2022/10/01 11:43:50;;;;;;;17.77;3.10;;;;;;;;;;6156836;23;20037;-78
2022/10/01 11:46:16;;;;;;;;;;;;;;;;;;6129600;23;20034;-79
2022/10/01 11:48:45;;;;;;;12.35;1.90;;;;;;;;;;6127026;23;44904;-77
2022/10/01 11:51:13;;;;;;;12.55;2.20;;;;;;;;;;6153653;23;20830;-77
2022/10/01 11:53:44;;;;;;;11.95;2.30;;;;;;;;;;6126625;23;20034;-80
2022/10/01 11:59:25;;;;;;;10.07;2.38;;;;;;;;;;6155729;23;20022;-78
2022/10/01 12:02:10;;;;;;;11.77;2.55;;;;;;;;;;6155399;23;20551;-77
2022/10/01 12:04:39;;;;;;;10.00;2.03;;;;;;;;;;6154864;23;20026;-78
2022/10/01 12:07:25;;;;;;;11.13;2.28;;;;;;;;;;6177751;23;20065;-81
2022/10/01 12:09:54;;;;;;;19.98;2.17;;;;;;;;;;6185272;23;20029;-79
2022/10/01 12:12:26;;;;;;;11.73;2.35;;;;;;;;;;6185390;23;20854;-77
2022/10/01 12:15:00;;;;;;;14.88;2.63;;;;;;;;;;6184007;23;20029;-79
2022/10/01 12:17:34;;;;;;;10.13;2.40;;;;;;;;;;6185411;23;20025;-80
2022/10/01 12:20:03;;;;;;;15.85;2.13;;;;;;;;;;6185097;23;20473;-77
2022/10/01 12:22:31;;;;;;;11.00;1.73;;;;;;;;;;6183693;23;20037;-81
2022/10/01 12:24:58;;;;;;;13.88;1.50;;;;;;;;;;6186265;23;20033;-81
2022/10/01 12:27:28;;;;;;;10.23;2.13;;;;;;;;;;6184960;23;20473;-79
2022/10/01 12:30:11;;;;;;;9.77;1.50;;;;;;;;;;6185310;23;20030;-82
2022/10/01 12:32:46;;;;;;;8.95;1.67;;;;;;;;;;6183975;23;20025;-80
2022/10/01 12:35:16;;;;;;;10.60;2.00;;;;;;;;;;6181718;23;20029;-79
2022/10/01 12:37:54;;;;;;;10.82;1.50;;;;;;;;;;6181455;23;20470;-82
2022/10/01 12:40:39;;;;;;;13.00;1.55;;;;;;;;;;6181620;23;20037;-82
2022/10/01 12:43:19;;;;;;;10.77;2.13;;;;;;;;;;6178865;23;20033;-81
2022/10/01 12:46:01;;;;;;;7.40;1.57;;;;;;;;;;6178036;23;20033;-77
2022/10/01 12:48:28;;;;;;;11.57;1.63;;;;;;;;;;6180119;23;20033;-77
2022/10/01 12:51:06;;;;;;;11.82;1.73;;;;;;;;;;6178808;23;20040;-77
2022/10/01 12:53:39;;;;;;;12.23;2.03;;;;;;;;;;6181211;23;20033;-78
2022/10/01 12:56:29;;;;;;;12.13;1.77;;;;;;;;;;6182052;23;20039;-83
2022/10/01 12:59:01;;;;;;;11.40;2.42;;;;;;;;;;6184590;23;20033;-80
2022/10/01 13:01:34;;;;;;;8.15;2.20;;;;;;;;;;6183361;23;20474;-80
2022/10/01 13:04:13;;;;;;;10.32;1.85;;;;;;;;;;6185701;23;20790;-79
2022/10/01 13:06:46;;;;;;;11.05;1.90;;;;;;;;;;6162445;23;20857;-77
2022/10/01 13:09:12;;;;;;;7.72;1.70;;;;;;;;;;6131654;23;20873;-80
2022/10/01 13:11:57;;;;;;;11.40;2.08;;;;;;;;;;6159433;23;20025;-80
2022/10/01 13:14:24;;;;;;;9.30;2.03;;;;;;;;;;6157763;23;20089;-80
2022/10/01 13:16:55;;;;;;;10.75;2.33;;;;;;;;;;6159231;23;20030;-80
2022/10/01 13:19:33;;;;;;;10.02;1.70;;;;;;;;;;6157362;23;20026;-80
2022/10/01 13:22:07;;;;;;;10.10;1.65;;;;;;;;;;6159508;23;21422;-78
2022/10/01 13:24:52;;;;;;;10.98;1.70;;;;;;;;;;6160090;23;20069;-78
2022/10/01 13:27:27;;;;;;;9.73;2.00;;;;;;;;;;6159674;23;20025;-79
2022/10/01 13:29:58;;;;;;;13.35;2.03;;;;;;;;;;6131974;23;20127;-79
2022/10/01 13:32:24;;;;;;;9.90;1.95;;;;;;;;;;6158837;23;20041;-79
2022/10/01 13:34:51;;;;;;;11.85;2.13;;;;;;;;;;6160216;23;20033;-80
2022/10/01 13:37:29;;;;;;;11.18;1.85;;;;;;;;;;6159888;23;20046;-80
2022/10/01 13:39:56;;;;;;;9.60;1.67;;;;;;;;;;6156925;23;20109;-82
2022/10/01 13:42:24;;;;;;;14.07;1.90;;;;;;;;;;6158089;23;20105;-81
2022/10/01 13:45:04;;;;;;;9.20;1.52;;;;;;;;;;6158920;23;20014;-81
2022/10/01 13:47:32;;;;;;;11.75;2.10;;;;;;;;;;6133172;23;20030;-80
2022/10/01 13:50:04;;;;;;;7.75;1.40;;;;;;;;;;6159593;23;20025;-80
2022/10/01 13:52:30;;;;;;;10.23;1.80;;;;;;;;;;6159091;23;20034;-80
2022/10/01 13:54:58;;;;;;;8.07;1.27;;;;;;;;;;6158972;23;20033;-80
2022/10/01 13:57:26;;;;;;;12.95;1.92;;;;;;;;;;6133533;23;20037;-81
2022/10/01 13:59:57;;;;;;;6.85;1.40;;;;;;;;;;6159385;23;20944;-80
2022/10/01 14:02:28;;;;;;;6.47;1.20;;;;;;;;;;6160427;23;20105;-79
2022/10/01 14:05:02;;;;;;;10.43;1.80;;;;;;;;;;6160321;23;20109;-81
2022/10/01 14:07:31;;;;;;;12.80;1.73;;;;;;;;;;6132916;23;20037;-78
2022/10/01 14:09:59;;;;;;;6.47;1.05;;;;;;;;;;6158126;23;20050;-80
2022/10/01 14:18:02;;;;;;;7.57;1.40;;;;;;;;;;6157497;23;20110;-79
2022/10/01 14:20:33;;;;;;;7.93;1.63;;;;;;;;;;6154327;23;20030;-79
2022/10/01 14:23:02;;;;;;;9.80;1.95;;;;;;;;;;6131420;23;20026;-79
2022/10/01 14:25:31;;;;;;;9.70;1.40;;;;;;;;;;6134884;23;20030;-79
2022/10/01 14:28:01;;;;;;;9.27;1.85;;;;;;;;;;6159738;23;20026;-80
2022/10/01 14:30:34;;;;;;;8.88;1.60;;;;;;;;;;6156266;23;20033;-78
2022/10/01 14:33:19;;;;;;;9.05;1.67;;;;;;;;;;6158357;23;20018;-80
2022/10/01 14:35:45;;;;;;;9.98;1.60;;;;;;;;;;6159852;23;20018;-79
2022/10/01 14:38:14;;;;;;;8.45;1.67;;;;;;;;;;6134094;23;20018;-79
2022/10/01 14:40:41;;;;;;;7.93;1.55;;;;;;;;;;6132118;23;20029;-79
2022/10/01 14:43:13;;;;;;;7.78;1.55;;;;;;;;;;6135416;23;20032;-80
2022/10/01 14:45:57;;;;;;;9.57;1.80;;;;;;;;;;6160398;23;20069;-79
2022/10/01 14:48:24;;;;;;;11.05;2.08;;;;;;;;;;6158808;23;20107;-81
2022/10/01 14:50:55;;;;;;;12.50;1.98;;;;;;;;;;6130749;23;20025;-80
2022/10/01 14:53:24;;;;;;;7.85;1.58;;;;;;;;;;6133835;23;20798;-79
2022/10/01 14:55:52;;;;;;;8.77;1.85;;;;;;;;;;6160672;23;20030;-80
2022/10/01 14:58:25;;;;;;;9.00;1.45;;;;;;;;;;6135710;23;20029;-79
2022/10/01 15:00:52;;;;;;;13.05;1.50;;;;;;;;;;6162429;23;20034;-79